sensor_id;sensor_type;location;lat;lon;timestamp;P1;durP1;ratioP1;P2;durP2;ratioP2
67248;SDS011;63247;54.300;18.592;2023-05-08T00:00:49;14.37;;;5.17;;
67248;SDS011;63247;54.300;18.592;2023-05-08T00:03:20;14.38;;;5.00;;
67248;SDS011;63247;54.300;18.592;2023-05-08T00:05:45;11.40;;;5.27;;
67248;SDS011;63247;54.300;18.592;2023-05-08T00:08:11;17.93;;;5.90;;
67248;SDS011;63247;54.300;18.592;2023-05-08T00:10:36;20.13;;;5.50;;
67248;SDS011;63247;54.300;18.592;2023-05-08T00:13:02;16.70;;;5.43;;
67248;SDS011;63247;54.300;18.592;2023-05-08T00:15:27;13.93;;;4.90;;
67248;SDS011;63247;54.300;18.592;2023-05-08T00:17:53;14.90;;;5.77;;
67248;SDS011;63247;54.300;18.592;2023-05-08T00:20:18;13.57;;;5.50;;
67248;SDS011;63247;54.300;18.592;2023-05-08T00:22:43;14.20;;;5.80;;
67248;SDS011;63247;54.300;18.592;2023-05-08T00:25:09;14.53;;;5.20;;
67248;SDS011;63247;54.300;18.592;2023-05-08T00:27:34;17.55;;;5.57;;
67248;SDS011;63247;54.300;18.592;2023-05-08T00:30:00;15.57;;;5.33;;
67248;SDS011;63247;54.300;18.592;2023-05-08T00:32:25;13.50;;;5.03;;
67248;SDS011;63247;54.300;18.592;2023-05-08T00:34:51;14.13;;;5.17;;
67248;SDS011;63247;54.300;18.592;2023-05-08T00:37:16;15.77;;;5.23;;
67248;SDS011;63247;54.300;18.592;2023-05-08T00:39:41;13.27;;;5.13;;
67248;SDS011;63247;54.300;18.592;2023-05-08T00:42:07;14.05;;;5.72;;
67248;SDS011;63247;54.300;18.592;2023-05-08T00:44:32;16.37;;;5.27;;
67248;SDS011;63247;54.300;18.592;2023-05-08T00:46:58;16.37;;;5.50;;
67248;SDS011;63247;54.300;18.592;2023-05-08T00:49:23;14.77;;;5.40;;
67248;SDS011;63247;54.300;18.592;2023-05-08T00:51:50;15.88;;;5.30;;
67248;SDS011;63247;54.300;18.592;2023-05-08T00:54:18;16.30;;;5.97;;
67248;SDS011;63247;54.300;18.592;2023-05-08T00:56:44;16.30;;;5.45;;
67248;SDS011;63247;54.300;18.592;2023-05-08T00:59:11;17.07;;;5.23;;
67248;SDS011;63247;54.300;18.592;2023-05-08T01:01:38;16.17;;;5.10;;
67248;SDS011;63247;54.300;18.592;2023-05-08T01:04:05;13.50;;;5.50;;
67248;SDS011;63247;54.300;18.592;2023-05-08T01:06:31;12.48;;;5.05;;
67248;SDS011;63247;54.300;18.592;2023-05-08T01:08:58;12.57;;;5.00;;
67248;SDS011;63247;54.300;18.592;2023-05-08T01:19:12;13.32;;;5.53;;
67248;SDS011;63247;54.300;18.592;2023-05-08T01:30:15;13.68;;;5.10;;
67248;SDS011;63247;54.300;18.592;2023-05-08T01:32:55;14.07;;;5.43;;
67248;SDS011;63247;54.300;18.592;2023-05-08T01:35:28;16.30;;;5.40;;
67248;SDS011;63247;54.300;18.592;2023-05-08T01:38:09;13.77;;;5.30;;
67248;SDS011;63247;54.300;18.592;2023-05-08T01:40:45;14.10;;;5.43;;
67248;SDS011;63247;54.300;18.592;2023-05-08T01:45:53;16.55;;;5.80;;
67248;SDS011;63247;54.300;18.592;2023-05-08T01:51:00;14.82;;;5.28;;
67248;SDS011;63247;54.300;18.592;2023-05-08T01:53:33;13.68;;;5.60;;
67248;SDS011;63247;54.300;18.592;2023-05-08T01:56:04;13.43;;;5.03;;
67248;SDS011;63247;54.300;18.592;2023-05-08T01:58:35;13.63;;;5.25;;
67248;SDS011;63247;54.300;18.592;2023-05-08T02:01:01;14.10;;;5.40;;
67248;SDS011;63247;54.300;18.592;2023-05-08T02:03:27;13.05;;;5.30;;
67248;SDS011;63247;54.300;18.592;2023-05-08T02:05:56;13.63;;;5.90;;
67248;SDS011;63247;54.300;18.592;2023-05-08T02:08:23;18.10;;;5.68;;
67248;SDS011;63247;54.300;18.592;2023-05-08T02:10:49;16.33;;;5.78;;
67248;SDS011;63247;54.300;18.592;2023-05-08T02:13:16;13.40;;;5.63;;
67248;SDS011;63247;54.300;18.592;2023-05-08T02:15:44;17.92;;;5.88;;
67248;SDS011;63247;54.300;18.592;2023-05-08T02:18:12;12.43;;;5.78;;
67248;SDS011;63247;54.300;18.592;2023-05-08T02:20:39;12.55;;;5.50;;
67248;SDS011;63247;54.300;18.592;2023-05-08T02:23:06;14.63;;;5.60;;
67248;SDS011;63247;54.300;18.592;2023-05-08T02:25:32;14.83;;;5.83;;
67248;SDS011;63247;54.300;18.592;2023-05-08T02:27:59;14.10;;;5.97;;
67248;SDS011;63247;54.300;18.592;2023-05-08T02:30:25;13.73;;;5.40;;
67248;SDS011;63247;54.300;18.592;2023-05-08T02:32:52;14.90;;;5.50;;
67248;SDS011;63247;54.300;18.592;2023-05-08T02:35:19;17.10;;;5.53;;
67248;SDS011;63247;54.300;18.592;2023-05-08T02:37:50;18.53;;;6.40;;
67248;SDS011;63247;54.300;18.592;2023-05-08T02:40:17;17.67;;;6.05;;
67248;SDS011;63247;54.300;18.592;2023-05-08T02:42:46;14.98;;;5.93;;
67248;SDS011;63247;54.300;18.592;2023-05-08T02:45:12;12.97;;;5.87;;
67248;SDS011;63247;54.300;18.592;2023-05-08T02:47:41;13.48;;;5.68;;
67248;SDS011;63247;54.300;18.592;2023-05-08T02:50:19;15.02;;;5.43;;
67248;SDS011;63247;54.300;18.592;2023-05-08T02:53:01;15.98;;;6.00;;
67248;SDS011;63247;54.300;18.592;2023-05-08T02:55:36;15.02;;;5.60;;
67248;SDS011;63247;54.300;18.592;2023-05-08T02:58:17;15.93;;;5.70;;
67248;SDS011;63247;54.300;18.592;2023-05-08T03:01:06;16.20;;;5.88;;
67248;SDS011;63247;54.300;18.592;2023-05-08T03:03:38;16.17;;;5.88;;
67248;SDS011;63247;54.300;18.592;2023-05-08T03:06:11;14.82;;;5.97;;
67248;SDS011;63247;54.300;18.592;2023-05-08T03:08:38;15.68;;;6.18;;
67248;SDS011;63247;54.300;18.592;2023-05-08T03:11:07;17.73;;;5.53;;
67248;SDS011;63247;54.300;18.592;2023-05-08T03:13:39;15.88;;;6.32;;
67248;SDS011;63247;54.300;18.592;2023-05-08T03:16:08;16.20;;;6.38;;
67248;SDS011;63247;54.300;18.592;2023-05-08T03:18:41;16.67;;;5.68;;
67248;SDS011;63247;54.300;18.592;2023-05-08T03:21:11;17.42;;;5.97;;
67248;SDS011;63247;54.300;18.592;2023-05-08T03:23:42;15.20;;;5.80;;
67248;SDS011;63247;54.300;18.592;2023-05-08T03:26:08;17.70;;;6.50;;
67248;SDS011;63247;54.300;18.592;2023-05-08T03:28:34;16.55;;;6.40;;
67248;SDS011;63247;54.300;18.592;2023-05-08T03:31:01;14.57;;;6.22;;
67248;SDS011;63247;54.300;18.592;2023-05-08T03:33:29;15.57;;;6.40;;
67248;SDS011;63247;54.300;18.592;2023-05-08T03:35:55;16.07;;;6.43;;
67248;SDS011;63247;54.300;18.592;2023-05-08T03:38:21;15.52;;;6.28;;
67248;SDS011;63247;54.300;18.592;2023-05-08T03:40:47;15.80;;;6.38;;
67248;SDS011;63247;54.300;18.592;2023-05-08T03:43:13;17.13;;;6.82;;
67248;SDS011;63247;54.300;18.592;2023-05-08T03:45:40;15.70;;;6.30;;
67248;SDS011;63247;54.300;18.592;2023-05-08T03:48:06;15.45;;;6.28;;
67248;SDS011;63247;54.300;18.592;2023-05-08T03:50:34;16.83;;;6.20;;
67248;SDS011;63247;54.300;18.592;2023-05-08T03:53:00;14.95;;;6.53;;
67248;SDS011;63247;54.300;18.592;2023-05-08T03:55:27;19.40;;;7.70;;
67248;SDS011;63247;54.300;18.592;2023-05-08T03:58:02;15.85;;;6.35;;
67248;SDS011;63247;54.300;18.592;2023-05-08T04:00:40;15.60;;;6.28;;
67248;SDS011;63247;54.300;18.592;2023-05-08T04:03:26;16.40;;;6.77;;
67248;SDS011;63247;54.300;18.592;2023-05-08T04:06:10;14.25;;;6.18;;
67248;SDS011;63247;54.300;18.592;2023-05-08T04:08:47;15.98;;;6.20;;
67248;SDS011;63247;54.300;18.592;2023-05-08T04:11:24;16.30;;;6.85;;
67248;SDS011;63247;54.300;18.592;2023-05-08T04:14:01;15.63;;;6.82;;
67248;SDS011;63247;54.300;18.592;2023-05-08T04:16:31;18.47;;;7.27;;
67248;SDS011;63247;54.300;18.592;2023-05-08T04:19:01;13.57;;;6.93;;
67248;SDS011;63247;54.300;18.592;2023-05-08T04:21:38;19.08;;;7.13;;
67248;SDS011;63247;54.300;18.592;2023-05-08T04:24:08;16.70;;;6.97;;
67248;SDS011;63247;54.300;18.592;2023-05-08T04:26:36;16.17;;;7.15;;
67248;SDS011;63247;54.300;18.592;2023-05-08T04:29:02;18.97;;;8.17;;
67248;SDS011;63247;54.300;18.592;2023-05-08T04:31:30;16.65;;;7.07;;
67248;SDS011;63247;54.300;18.592;2023-05-08T04:33:56;18.42;;;7.35;;
67248;SDS011;63247;54.300;18.592;2023-05-08T04:36:22;18.10;;;7.72;;
67248;SDS011;63247;54.300;18.592;2023-05-08T04:38:47;20.07;;;8.40;;
67248;SDS011;63247;54.300;18.592;2023-05-08T04:41:13;22.33;;;8.40;;
67248;SDS011;63247;54.300;18.592;2023-05-08T04:43:39;21.50;;;9.23;;
67248;SDS011;63247;54.300;18.592;2023-05-08T04:46:05;15.73;;;7.72;;
67248;SDS011;63247;54.300;18.592;2023-05-08T04:48:31;16.03;;;7.40;;
67248;SDS011;63247;54.300;18.592;2023-05-08T04:50:57;16.70;;;7.47;;
67248;SDS011;63247;54.300;18.592;2023-05-08T04:53:23;24.75;;;8.32;;
67248;SDS011;63247;54.300;18.592;2023-05-08T04:55:49;17.87;;;6.97;;
67248;SDS011;63247;54.300;18.592;2023-05-08T04:58:14;18.60;;;6.80;;
67248;SDS011;63247;54.300;18.592;2023-05-08T05:00:39;14.60;;;6.33;;
67248;SDS011;63247;54.300;18.592;2023-05-08T05:03:05;15.10;;;6.67;;
67248;SDS011;63247;54.300;18.592;2023-05-08T05:05:30;23.02;;;8.25;;
67248;SDS011;63247;54.300;18.592;2023-05-08T05:07:56;25.07;;;7.77;;
67248;SDS011;63247;54.300;18.592;2023-05-08T05:10:21;40.17;;;8.80;;
67248;SDS011;63247;54.300;18.592;2023-05-08T05:12:46;37.73;;;9.20;;
67248;SDS011;63247;54.300;18.592;2023-05-08T05:15:12;24.23;;;7.47;;
67248;SDS011;63247;54.300;18.592;2023-05-08T05:17:37;23.17;;;7.40;;
67248;SDS011;63247;54.300;18.592;2023-05-08T05:20:03;21.58;;;7.00;;
67248;SDS011;63247;54.300;18.592;2023-05-08T05:22:31;17.42;;;6.90;;
67248;SDS011;63247;54.300;18.592;2023-05-08T05:24:57;13.33;;;6.30;;
67248;SDS011;63247;54.300;18.592;2023-05-08T05:27:22;12.32;;;6.13;;
67248;SDS011;63247;54.300;18.592;2023-05-08T05:29:48;14.77;;;6.43;;
67248;SDS011;63247;54.300;18.592;2023-05-08T05:32:14;14.05;;;6.00;;
67248;SDS011;63247;54.300;18.592;2023-05-08T05:34:39;13.17;;;5.73;;
67248;SDS011;63247;54.300;18.592;2023-05-08T05:37:04;14.47;;;6.60;;
67248;SDS011;63247;54.300;18.592;2023-05-08T05:39:30;18.50;;;6.90;;
67248;SDS011;63247;54.300;18.592;2023-05-08T05:41:55;19.00;;;6.37;;
67248;SDS011;63247;54.300;18.592;2023-05-08T05:44:21;14.93;;;6.27;;
67248;SDS011;63247;54.300;18.592;2023-05-08T05:46:46;14.93;;;6.10;;
67248;SDS011;63247;54.300;18.592;2023-05-08T05:49:11;12.93;;;5.57;;
67248;SDS011;63247;54.300;18.592;2023-05-08T05:51:37;15.23;;;5.80;;
67248;SDS011;63247;54.300;18.592;2023-05-08T05:54:02;14.10;;;6.18;;
67248;SDS011;63247;54.300;18.592;2023-05-08T05:56:28;15.50;;;5.83;;
67248;SDS011;63247;54.300;18.592;2023-05-08T05:58:53;14.10;;;6.40;;
67248;SDS011;63247;54.300;18.592;2023-05-08T06:01:19;23.30;;;6.53;;
67248;SDS011;63247;54.300;18.592;2023-05-08T06:03:44;19.23;;;6.28;;
67248;SDS011;63247;54.300;18.592;2023-05-08T06:06:11;20.58;;;6.70;;
67248;SDS011;63247;54.300;18.592;2023-05-08T06:08:36;24.70;;;6.50;;
67248;SDS011;63247;54.300;18.592;2023-05-08T06:11:02;17.40;;;6.13;;
67248;SDS011;63247;54.300;18.592;2023-05-08T06:13:27;20.83;;;6.37;;
67248;SDS011;63247;54.300;18.592;2023-05-08T06:15:53;17.60;;;6.05;;
67248;SDS011;63247;54.300;18.592;2023-05-08T06:18:22;18.08;;;5.97;;
67248;SDS011;63247;54.300;18.592;2023-05-08T06:20:47;21.23;;;6.60;;
67248;SDS011;63247;54.300;18.592;2023-05-08T06:23:13;17.10;;;6.03;;
67248;SDS011;63247;54.300;18.592;2023-05-08T06:25:38;15.53;;;6.53;;
67248;SDS011;63247;54.300;18.592;2023-05-08T06:28:04;21.00;;;6.82;;
67248;SDS011;63247;54.300;18.592;2023-05-08T06:30:32;20.17;;;6.57;;
67248;SDS011;63247;54.300;18.592;2023-05-08T06:32:57;24.67;;;9.37;;
67248;SDS011;63247;54.300;18.592;2023-05-08T06:35:23;25.85;;;8.60;;
67248;SDS011;63247;54.300;18.592;2023-05-08T06:37:48;18.73;;;8.20;;
67248;SDS011;63247;54.300;18.592;2023-05-08T06:40:14;26.30;;;9.00;;
67248;SDS011;63247;54.300;18.592;2023-05-08T06:42:39;27.40;;;8.80;;
67248;SDS011;63247;54.300;18.592;2023-05-08T06:45:05;19.98;;;7.72;;
67248;SDS011;63247;54.300;18.592;2023-05-08T06:47:32;16.88;;;6.90;;
67248;SDS011;63247;54.300;18.592;2023-05-08T06:49:58;21.47;;;7.67;;
67248;SDS011;63247;54.300;18.592;2023-05-08T06:52:24;23.20;;;6.60;;
67248;SDS011;63247;54.300;18.592;2023-05-08T06:54:49;14.10;;;6.97;;
67248;SDS011;63247;54.300;18.592;2023-05-08T06:57:15;14.10;;;6.40;;
67248;SDS011;63247;54.300;18.592;2023-05-08T06:59:41;13.90;;;5.55;;
67248;SDS011;63247;54.300;18.592;2023-05-08T07:02:06;13.63;;;5.73;;
67248;SDS011;63247;54.300;18.592;2023-05-08T07:04:33;13.00;;;5.10;;
67248;SDS011;63247;54.300;18.592;2023-05-08T07:06:59;18.93;;;5.60;;
67248;SDS011;63247;54.300;18.592;2023-05-08T07:09:24;16.13;;;5.90;;
67248;SDS011;63247;54.300;18.592;2023-05-08T07:11:49;17.37;;;5.97;;
67248;SDS011;63247;54.300;18.592;2023-05-08T07:14:15;14.83;;;6.47;;
67248;SDS011;63247;54.300;18.592;2023-05-08T07:16:40;17.27;;;6.30;;
67248;SDS011;63247;54.300;18.592;2023-05-08T07:19:06;8.53;;;6.00;;
67248;SDS011;63247;54.300;18.592;2023-05-08T07:21:31;24.70;;;6.67;;
67248;SDS011;63247;54.300;18.592;2023-05-08T07:23:57;12.82;;;5.93;;
67248;SDS011;63247;54.300;18.592;2023-05-08T07:26:22;15.00;;;5.30;;
67248;SDS011;63247;54.300;18.592;2023-05-08T07:28:48;13.60;;;5.50;;
67248;SDS011;63247;54.300;18.592;2023-05-08T07:31:14;14.18;;;5.50;;
67248;SDS011;63247;54.300;18.592;2023-05-08T07:33:40;12.27;;;5.43;;
67248;SDS011;63247;54.300;18.592;2023-05-08T07:36:05;13.05;;;5.20;;
67248;SDS011;63247;54.300;18.592;2023-05-08T07:38:31;17.03;;;5.57;;
67248;SDS011;63247;54.300;18.592;2023-05-08T07:40:56;13.23;;;6.47;;
67248;SDS011;63247;54.300;18.592;2023-05-08T07:43:23;8.05;;;5.05;;
67248;SDS011;63247;54.300;18.592;2023-05-08T07:45:49;12.13;;;5.05;;
67248;SDS011;63247;54.300;18.592;2023-05-08T07:48:15;11.83;;;5.50;;
67248;SDS011;63247;54.300;18.592;2023-05-08T07:50:40;12.13;;;6.07;;
67248;SDS011;63247;54.300;18.592;2023-05-08T07:53:06;13.23;;;8.40;;
67248;SDS011;63247;54.300;18.592;2023-05-08T07:55:31;11.60;;;5.50;;
67248;SDS011;63247;54.300;18.592;2023-05-08T07:57:57;10.67;;;5.43;;
67248;SDS011;63247;54.300;18.592;2023-05-08T08:00:23;11.38;;;5.93;;
67248;SDS011;63247;54.300;18.592;2023-05-08T08:02:51;13.13;;;6.32;;
67248;SDS011;63247;54.300;18.592;2023-05-08T08:05:16;11.93;;;6.97;;
67248;SDS011;63247;54.300;18.592;2023-05-08T08:07:42;13.40;;;6.40;;
67248;SDS011;63247;54.300;18.592;2023-05-08T08:10:07;20.55;;;7.97;;
67248;SDS011;63247;54.300;18.592;2023-05-08T08:12:33;15.63;;;7.00;;
67248;SDS011;63247;54.300;18.592;2023-05-08T08:14:58;11.47;;;6.20;;
67248;SDS011;63247;54.300;18.592;2023-05-08T08:17:24;15.03;;;6.80;;
67248;SDS011;63247;54.300;18.592;2023-05-08T08:19:49;9.98;;;5.30;;
67248;SDS011;63247;54.300;18.592;2023-05-08T08:22:15;11.93;;;6.20;;
67248;SDS011;63247;54.300;18.592;2023-05-08T08:24:40;12.03;;;4.97;;
67248;SDS011;63247;54.300;18.592;2023-05-08T08:27:06;10.60;;;5.20;;
67248;SDS011;63247;54.300;18.592;2023-05-08T08:29:32;7.43;;;4.00;;
67248;SDS011;63247;54.300;18.592;2023-05-08T08:31:57;10.13;;;4.30;;
67248;SDS011;63247;54.300;18.592;2023-05-08T08:34:24;10.00;;;4.88;;
67248;SDS011;63247;54.300;18.592;2023-05-08T08:36:50;8.73;;;4.60;;
67248;SDS011;63247;54.300;18.592;2023-05-08T08:39:15;10.13;;;4.33;;
67248;SDS011;63247;54.300;18.592;2023-05-08T08:41:40;7.00;;;3.27;;
67248;SDS011;63247;54.300;18.592;2023-05-08T08:44:06;7.53;;;3.60;;
67248;SDS011;63247;54.300;18.592;2023-05-08T08:46:32;8.00;;;3.70;;
67248;SDS011;63247;54.300;18.592;2023-05-08T08:48:57;6.57;;;3.88;;
67248;SDS011;63247;54.300;18.592;2023-05-08T08:51:25;6.80;;;3.80;;
67248;SDS011;63247;54.300;18.592;2023-05-08T08:54:13;6.60;;;3.97;;
67248;SDS011;63247;54.300;18.592;2023-05-08T08:56:39;7.22;;;3.85;;
67248;SDS011;63247;54.300;18.592;2023-05-08T08:59:07;9.32;;;4.43;;
67248;SDS011;63247;54.300;18.592;2023-05-08T09:01:33;10.05;;;4.40;;
67248;SDS011;63247;54.300;18.592;2023-05-08T09:04:02;6.20;;;3.80;;
67248;SDS011;63247;54.300;18.592;2023-05-08T09:06:29;6.28;;;4.15;;
67248;SDS011;63247;54.300;18.592;2023-05-08T09:08:55;8.07;;;4.57;;
67248;SDS011;63247;54.300;18.592;2023-05-08T09:11:22;7.57;;;4.30;;
67248;SDS011;63247;54.300;18.592;2023-05-08T09:13:48;7.95;;;4.10;;
67248;SDS011;63247;54.300;18.592;2023-05-08T09:16:13;9.67;;;4.43;;
67248;SDS011;63247;54.300;18.592;2023-05-08T09:18:38;7.43;;;4.17;;
67248;SDS011;63247;54.300;18.592;2023-05-08T09:21:07;8.40;;;3.73;;
67248;SDS011;63247;54.300;18.592;2023-05-08T09:23:36;8.43;;;3.80;;
67248;SDS011;63247;54.300;18.592;2023-05-08T09:26:01;6.13;;;3.40;;
67248;SDS011;63247;54.300;18.592;2023-05-08T09:28:27;6.97;;;3.53;;
67248;SDS011;63247;54.300;18.592;2023-05-08T09:33:22;7.05;;;3.30;;
67248;SDS011;63247;54.300;18.592;2023-05-08T09:35:52;5.32;;;3.30;;
67248;SDS011;63247;54.300;18.592;2023-05-08T09:38:30;5.47;;;3.25;;
67248;SDS011;63247;54.300;18.592;2023-05-08T09:41:06;8.00;;;3.72;;
67248;SDS011;63247;54.300;18.592;2023-05-08T09:43:37;9.45;;;3.50;;
67248;SDS011;63247;54.300;18.592;2023-05-08T09:46:19;7.68;;;3.15;;
67248;SDS011;63247;54.300;18.592;2023-05-08T09:48:48;6.97;;;3.15;;
67248;SDS011;63247;54.300;18.592;2023-05-08T09:51:15;6.20;;;3.00;;
67248;SDS011;63247;54.300;18.592;2023-05-08T09:53:41;6.43;;;3.15;;
67248;SDS011;63247;54.300;18.592;2023-05-08T09:56:06;6.17;;;3.27;;
67248;SDS011;63247;54.300;18.592;2023-05-08T09:58:41;6.15;;;2.63;;
67248;SDS011;63247;54.300;18.592;2023-05-08T10:01:26;10.37;;;3.90;;
67248;SDS011;63247;54.300;18.592;2023-05-08T10:03:55;25.02;;;4.30;;
67248;SDS011;63247;54.300;18.592;2023-05-08T10:06:21;8.65;;;3.33;;
67248;SDS011;63247;54.300;18.592;2023-05-08T10:08:46;10.30;;;3.40;;
67248;SDS011;63247;54.300;18.592;2023-05-08T10:11:18;4.93;;;2.57;;
67248;SDS011;63247;54.300;18.592;2023-05-08T10:13:46;5.72;;;3.17;;
67248;SDS011;63247;54.300;18.592;2023-05-08T10:16:15;9.35;;;3.20;;
67248;SDS011;63247;54.300;18.592;2023-05-08T10:18:48;8.23;;;2.90;;
67248;SDS011;63247;54.300;18.592;2023-05-08T10:21:15;5.70;;;2.92;;
67248;SDS011;63247;54.300;18.592;2023-05-08T10:23:42;11.88;;;3.42;;
67248;SDS011;63247;54.300;18.592;2023-05-08T10:26:12;7.85;;;2.90;;
67248;SDS011;63247;54.300;18.592;2023-05-08T10:31:18;7.20;;;2.93;;
67248;SDS011;63247;54.300;18.592;2023-05-08T10:33:46;7.03;;;2.38;;
67248;SDS011;63247;54.300;18.592;2023-05-08T10:36:15;6.95;;;2.08;;
67248;SDS011;63247;54.300;18.592;2023-05-08T10:38:40;5.25;;;2.65;;
67248;SDS011;63247;54.300;18.592;2023-05-08T10:41:07;8.05;;;3.70;;
67248;SDS011;63247;54.300;18.592;2023-05-08T10:43:34;6.05;;;2.80;;
67248;SDS011;63247;54.300;18.592;2023-05-08T10:46:10;6.20;;;2.70;;
67248;SDS011;63247;54.300;18.592;2023-05-08T10:52:15;5.57;;;2.50;;
67248;SDS011;63247;54.300;18.592;2023-05-08T10:54:55;5.30;;;2.65;;
67248;SDS011;63247;54.300;18.592;2023-05-08T10:57:28;14.75;;;5.47;;
67248;SDS011;63247;54.300;18.592;2023-05-08T10:59:54;7.07;;;3.20;;
67248;SDS011;63247;54.300;18.592;2023-05-08T11:02:26;7.97;;;3.40;;
67248;SDS011;63247;54.300;18.592;2023-05-08T11:04:54;7.78;;;3.15;;
67248;SDS011;63247;54.300;18.592;2023-05-08T11:07:28;7.88;;;2.83;;
67248;SDS011;63247;54.300;18.592;2023-05-08T11:09:54;6.53;;;2.92;;
67248;SDS011;63247;54.300;18.592;2023-05-08T11:12:31;6.53;;;2.67;;
67248;SDS011;63247;54.300;18.592;2023-05-08T11:17:27;8.65;;;3.42;;
67248;SDS011;63247;54.300;18.592;2023-05-08T11:20:00;7.20;;;2.77;;
67248;SDS011;63247;54.300;18.592;2023-05-08T11:22:28;6.13;;;2.70;;
67248;SDS011;63247;54.300;18.592;2023-05-08T11:24:58;7.35;;;3.20;;
67248;SDS011;63247;54.300;18.592;2023-05-08T11:38:30;7.68;;;2.70;;
67248;SDS011;63247;54.300;18.592;2023-05-08T11:46:07;9.80;;;3.80;;
67248;SDS011;63247;54.300;18.592;2023-05-08T11:48:38;20.48;;;5.00;;
67248;SDS011;63247;54.300;18.592;2023-05-08T11:51:05;7.95;;;3.00;;
67248;SDS011;63247;54.300;18.592;2023-05-08T11:53:30;7.65;;;3.22;;
67248;SDS011;63247;54.300;18.592;2023-05-08T11:55:57;9.00;;;3.47;;
67248;SDS011;63247;54.300;18.592;2023-05-08T11:58:23;8.95;;;3.08;;
67248;SDS011;63247;54.300;18.592;2023-05-08T12:00:49;5.88;;;2.92;;
67248;SDS011;63247;54.300;18.592;2023-05-08T12:03:15;7.73;;;3.10;;
67248;SDS011;63247;54.300;18.592;2023-05-08T12:05:42;7.25;;;3.10;;
67248;SDS011;63247;54.300;18.592;2023-05-08T12:08:09;7.20;;;3.30;;
67248;SDS011;63247;54.300;18.592;2023-05-08T12:10:55;6.80;;;2.90;;
67248;SDS011;63247;54.300;18.592;2023-05-08T12:13:22;9.98;;;3.40;;
67248;SDS011;63247;54.300;18.592;2023-05-08T12:15:56;7.50;;;3.10;;
67248;SDS011;63247;54.300;18.592;2023-05-08T12:18:23;8.38;;;3.72;;
67248;SDS011;63247;54.300;18.592;2023-05-08T12:20:55;7.80;;;2.65;;
67248;SDS011;63247;54.300;18.592;2023-05-08T12:23:23;7.30;;;3.10;;
67248;SDS011;63247;54.300;18.592;2023-05-08T12:25:53;7.32;;;3.40;;
67248;SDS011;63247;54.300;18.592;2023-05-08T12:28:19;7.70;;;3.53;;
67248;SDS011;63247;54.300;18.592;2023-05-08T12:30:45;9.07;;;3.40;;
67248;SDS011;63247;54.300;18.592;2023-05-08T12:33:10;6.72;;;2.88;;
67248;SDS011;63247;54.300;18.592;2023-05-08T12:35:37;8.07;;;3.15;;
67248;SDS011;63247;54.300;18.592;2023-05-08T12:38:04;8.55;;;2.85;;
67248;SDS011;63247;54.300;18.592;2023-05-08T12:40:45;10.13;;;2.90;;
67248;SDS011;63247;54.300;18.592;2023-05-08T12:43:14;9.23;;;3.35;;
67248;SDS011;63247;54.300;18.592;2023-05-08T12:45:40;8.20;;;3.05;;
67248;SDS011;63247;54.300;18.592;2023-05-08T12:50:48;7.13;;;3.15;;
67248;SDS011;63247;54.300;18.592;2023-05-08T12:53:17;5.78;;;2.30;;
67248;SDS011;63247;54.300;18.592;2023-05-08T12:55:54;6.85;;;3.00;;
67248;SDS011;63247;54.300;18.592;2023-05-08T12:58:28;8.63;;;3.40;;
67248;SDS011;63247;54.300;18.592;2023-05-08T13:03:30;7.90;;;2.83;;
67248;SDS011;63247;54.300;18.592;2023-05-08T13:05:57;7.07;;;3.00;;
67248;SDS011;63247;54.300;18.592;2023-05-08T13:08:29;9.00;;;3.05;;
67248;SDS011;63247;54.300;18.592;2023-05-08T13:10:58;10.98;;;2.90;;
67248;SDS011;63247;54.300;18.592;2023-05-08T13:13:25;6.22;;;3.03;;
67248;SDS011;63247;54.300;18.592;2023-05-08T13:15:52;7.70;;;3.95;;
67248;SDS011;63247;54.300;18.592;2023-05-08T13:18:19;7.20;;;3.00;;
67248;SDS011;63247;54.300;18.592;2023-05-08T13:20:45;6.70;;;2.85;;
67248;SDS011;63247;54.300;18.592;2023-05-08T13:23:11;7.63;;;3.40;;
67248;SDS011;63247;54.300;18.592;2023-05-08T13:25:37;6.95;;;2.90;;
67248;SDS011;63247;54.300;18.592;2023-05-08T13:28:03;6.03;;;3.00;;
67248;SDS011;63247;54.300;18.592;2023-05-08T13:30:30;8.75;;;3.15;;
67248;SDS011;63247;54.300;18.592;2023-05-08T13:32:55;7.60;;;3.20;;
67248;SDS011;63247;54.300;18.592;2023-05-08T13:35:21;7.63;;;2.78;;
67248;SDS011;63247;54.300;18.592;2023-05-08T13:37:47;9.88;;;2.70;;
67248;SDS011;63247;54.300;18.592;2023-05-08T13:40:14;7.93;;;2.80;;
67248;SDS011;63247;54.300;18.592;2023-05-08T13:42:40;6.13;;;2.47;;
67248;SDS011;63247;54.300;18.592;2023-05-08T13:45:06;5.00;;;2.40;;
67248;SDS011;63247;54.300;18.592;2023-05-08T13:47:32;8.60;;;2.60;;
67248;SDS011;63247;54.300;18.592;2023-05-08T13:49:58;9.63;;;3.03;;
67248;SDS011;63247;54.300;18.592;2023-05-08T13:52:23;5.55;;;2.60;;
67248;SDS011;63247;54.300;18.592;2023-05-08T13:54:50;9.18;;;2.78;;
67248;SDS011;63247;54.300;18.592;2023-05-08T13:57:15;6.63;;;2.42;;
67248;SDS011;63247;54.300;18.592;2023-05-08T13:59:41;6.17;;;2.70;;
67248;SDS011;63247;54.300;18.592;2023-05-08T14:02:06;8.80;;;3.00;;
67248;SDS011;63247;54.300;18.592;2023-05-08T14:04:32;6.30;;;2.90;;
67248;SDS011;63247;54.300;18.592;2023-05-08T14:06:57;5.67;;;2.70;;
67248;SDS011;63247;54.300;18.592;2023-05-08T14:09:23;9.93;;;3.10;;
67248;SDS011;63247;54.300;18.592;2023-05-08T14:11:49;7.43;;;3.00;;
67248;SDS011;63247;54.300;18.592;2023-05-08T14:14:14;7.72;;;2.67;;
67248;SDS011;63247;54.300;18.592;2023-05-08T14:16:39;6.13;;;2.80;;
67248;SDS011;63247;54.300;18.592;2023-05-08T14:19:05;6.03;;;2.70;;
67248;SDS011;63247;54.300;18.592;2023-05-08T14:21:30;5.80;;;2.50;;
67248;SDS011;63247;54.300;18.592;2023-05-08T14:23:56;7.10;;;2.60;;
67248;SDS011;63247;54.300;18.592;2023-05-08T14:26:22;7.27;;;2.60;;
67248;SDS011;63247;54.300;18.592;2023-05-08T14:28:47;6.27;;;3.07;;
67248;SDS011;63247;54.300;18.592;2023-05-08T14:31:12;8.00;;;2.53;;
67248;SDS011;63247;54.300;18.592;2023-05-08T14:33:38;6.33;;;2.80;;
67248;SDS011;63247;54.300;18.592;2023-05-08T14:36:03;5.93;;;2.77;;
67248;SDS011;63247;54.300;18.592;2023-05-08T14:38:29;9.50;;;2.90;;
67248;SDS011;63247;54.300;18.592;2023-05-08T14:40:55;7.30;;;2.70;;
67248;SDS011;63247;54.300;18.592;2023-05-08T14:43:21;6.87;;;2.63;;
67248;SDS011;63247;54.300;18.592;2023-05-08T14:45:46;5.90;;;2.60;;
67248;SDS011;63247;54.300;18.592;2023-05-08T14:48:12;6.88;;;2.55;;
67248;SDS011;63247;54.300;18.592;2023-05-08T14:50:45;5.45;;;2.58;;
67248;SDS011;63247;54.300;18.592;2023-05-08T14:53:10;7.50;;;2.90;;
67248;SDS011;63247;54.300;18.592;2023-05-08T14:55:36;5.88;;;2.50;;
67248;SDS011;63247;54.300;18.592;2023-05-08T14:58:01;8.43;;;2.83;;
67248;SDS011;63247;54.300;18.592;2023-05-08T15:00:26;7.50;;;2.70;;
67248;SDS011;63247;54.300;18.592;2023-05-08T15:02:52;5.70;;;2.50;;
67248;SDS011;63247;54.300;18.592;2023-05-08T15:05:18;7.03;;;2.30;;
67248;SDS011;63247;54.300;18.592;2023-05-08T15:07:43;8.00;;;2.83;;
67248;SDS011;63247;54.300;18.592;2023-05-08T15:10:09;6.47;;;2.90;;
67248;SDS011;63247;54.300;18.592;2023-05-08T15:12:35;7.25;;;2.70;;
67248;SDS011;63247;54.300;18.592;2023-05-08T15:15:01;5.70;;;2.58;;
67248;SDS011;63247;54.300;18.592;2023-05-08T15:17:26;7.97;;;2.73;;
67248;SDS011;63247;54.300;18.592;2023-05-08T15:19:52;7.20;;;2.70;;
67248;SDS011;63247;54.300;18.592;2023-05-08T15:22:17;6.67;;;2.67;;